Terminal Aerodrome Forecast
Issued by NWS Buffalo, NY

Home | Current Version | Previous Version | Text Only | Print | Product List | Glossary On
Versions: 1 2 3 4 5 6 7 8 9 10 11 12 13 14 15 16 17 18 19 20 21 22 23 24 25 26 27 28 29
000
FTUS41 KBUF 231526 AAA
TAFROC
TAF AMD
KROC 231526Z 2315/2412 09011KT P6SM FEW025 BKN080
     FM232100 07012G19KT 6SM -RA OVC025
     FM240200 07012G21KT 2SM -SN OVC020
     FM240300 07011G21KT 3/4SM -SN OVC012=

USA.gov is the U.S. government's official web portal to all federal, state and local government web resources and services.